Time;durP1;ratioP1;P1;durP2;ratioP2;P2;SDS_P1;SDS_P2;PMS_P1;PMS_P2;Temp;Humidity;BMP_temperature;BMP_pressure;BME280_temperature;BME280_humidity;BME280_pressure;Samples;Min_cycle;Max_cycle;Signal;HPM_P1;HPM_P2
2023/05/04 00:01:50;;;;;;;12.10;4.43;;;6.30;99.90;;;;;;5074456;28;20043;-88
2023/05/04 00:04:16;;;;;;;10.32;4.10;;;6.30;99.90;;;;;;5092361;28;20108;-88
2023/05/04 00:06:42;;;;;;;12.25;3.90;;;6.30;99.90;;;;;;5074535;28;20039;-88
2023/05/04 00:09:10;;;;;;;9.05;4.35;;;6.30;99.90;;;;;;5108795;28;20074;-90
2023/05/04 00:11:36;;;;;;;9.40;4.00;;;7.40;99.90;;;;;;5091114;28;20051;-89
2023/05/04 00:14:02;;;;;;;12.75;4.30;;;6.30;99.90;;;;;;5074313;28;20127;-89
2023/05/04 00:16:28;;;;;;;8.27;4.00;;;7.30;99.90;;;;;;5108516;28;20128;-89
2023/05/04 00:18:53;;;;;;;12.13;3.90;;;7.00;99.90;;;;;;5073718;28;20502;-90
2023/05/04 00:21:19;;;;;;;8.63;3.90;;;7.60;99.90;;;;;;5074441;28;20055;-87
2023/05/04 00:23:44;;;;;;;12.73;4.47;;;6.20;99.90;;;;;;5074339;28;20036;-88
2023/05/04 00:26:10;;;;;;;8.50;4.25;;;7.10;99.90;;;;;;5091846;28;20480;-88
2023/05/04 00:28:36;;;;;;;10.27;3.88;;;6.20;99.90;;;;;;5073608;28;20089;-88
2023/05/04 00:31:02;;;;;;;9.13;4.28;;;6.90;99.90;;;;;;5090787;28;20036;-89
2023/05/04 00:33:28;;;;;;;6.72;3.85;;;6.20;99.90;;;;;;5107621;27;20051;-88
2023/05/04 00:35:53;;;;;;;8.75;4.25;;;6.20;99.90;;;;;;5073788;28;20089;-89
2023/05/04 00:38:19;;;;;;;14.35;4.85;;;6.90;99.90;;;;;;5074247;28;20083;-88
2023/05/04 00:40:45;;;;;;;12.52;4.30;;;6.20;99.90;;;;;;5090716;28;20039;-89
2023/05/04 00:43:10;;;;;;;12.68;4.45;;;6.20;99.90;;;;;;5091896;28;20100;-88
2023/05/04 00:45:37;;;;;;;7.63;4.20;;;6.40;99.90;;;;;;5090508;28;20387;-89
2023/05/04 00:48:04;;;;;;;9.73;4.18;;;7.40;99.90;;;;;;5074422;28;20036;-88
2023/05/04 00:50:30;;;;;;;12.95;4.28;;;6.10;99.90;;;;;;5108121;27;20035;-89
2023/05/04 00:53:00;;;;;;;11.40;4.70;;;6.10;99.90;;;;;;5101757;28;20114;-88
2023/05/04 00:55:26;;;;;;;8.10;3.92;;;6.50;99.90;;;;;;5109643;28;20043;-89
2023/05/04 00:57:52;;;;;;;13.35;4.50;;;6.00;99.90;;;;;;5074070;28;20058;-89
2023/05/04 01:00:18;;;;;;;10.70;5.13;;;6.00;99.90;;;;;;5074141;28;20040;-89
2023/05/04 01:02:44;;;;;;;12.75;5.47;;;6.00;99.90;;;;;;5090236;28;20039;-89
2023/05/04 01:05:13;;;;;;;8.50;5.10;;;6.00;99.90;;;;;;5090222;28;20089;-89
2023/05/04 01:07:52;;;;;;;7.80;4.45;;;7.40;99.90;;;;;;5107403;28;20490;-89
2023/05/04 01:10:24;;;;;;;7.97;4.60;;;6.00;99.90;;;;;;5089885;28;20090;-89
2023/05/04 01:13:06;;;;;;;11.50;4.85;;;5.40;99.90;;;;;;5108066;28;20047;-89
2023/05/04 01:15:33;;;;;;;6.53;3.65;;;6.00;99.90;;;;;;5106280;28;20040;-90
2023/05/04 01:17:59;;;;;;;12.45;4.50;;;6.00;99.90;;;;;;5090184;28;20070;-89
2023/05/04 01:20:25;;;;;;;10.27;5.38;;;6.00;99.90;;;;;;5106059;28;20091;-89
2023/05/04 01:22:50;;;;;;;10.57;4.53;;;6.00;99.90;;;;;;5088185;28;20083;-89
2023/05/04 01:25:17;;;;;;;10.07;4.50;;;6.00;99.90;;;;;;5072817;28;20046;-89
2023/05/04 01:27:55;;;;;;;12.38;4.60;;;5.90;99.90;;;;;;5088523;28;20043;-89
2023/05/04 01:30:27;;;;;;;7.78;4.15;;;7.20;99.90;;;;;;5106684;28;20127;-90
2023/05/04 01:32:55;;;;;;;8.82;4.38;;;6.00;99.90;;;;;;5091935;28;20130;-89
2023/05/04 01:35:22;;;;;;;9.10;4.63;;;5.90;99.90;;;;;;5089443;28;20040;-88
2023/05/04 01:37:47;;;;;;;8.18;4.30;;;5.90;99.90;;;;;;5092305;28;20043;-89
2023/05/04 01:40:13;;;;;;;11.75;4.97;;;7.00;99.90;;;;;;5091943;28;20047;-89
2023/05/04 01:42:39;;;;;;;8.73;4.43;;;6.10;99.90;;;;;;5075536;28;20425;-89
2023/05/04 01:45:05;;;;;;;10.23;4.10;;;5.90;99.90;;;;;;5090363;28;20042;-89
2023/05/04 01:47:31;;;;;;;18.30;6.05;;;5.90;99.90;;;;;;5107065;28;20670;-89
2023/05/04 01:49:56;;;;;;;12.18;4.47;;;6.50;99.90;;;;;;5088408;28;20043;-89
2023/05/04 01:52:25;;;;;;;12.30;4.47;;;5.30;99.90;;;;;;5072074;28;20050;-88
2023/05/04 01:54:50;;;;;;;9.77;5.43;;;5.90;99.90;;;;;;5105750;28;20118;-89
2023/05/04 01:57:16;;;;;;;13.30;4.97;;;5.80;99.90;;;;;;5104864;28;20515;-89
2023/05/04 01:59:42;;;;;;;11.80;4.47;;;5.80;99.90;;;;;;5089972;28;20040;-89
2023/05/04 02:02:08;;;;;;;18.92;4.78;;;5.80;99.90;;;;;;5089061;28;20155;-89
2023/05/04 02:04:34;;;;;;;6.03;4.25;;;5.80;99.90;;;;;;5090529;28;20047;-90
2023/05/04 02:07:00;;;;;;;9.68;4.70;;;6.20;99.90;;;;;;5089029;28;20069;-90
2023/05/04 02:09:25;;;;;;;12.07;5.55;;;5.80;99.90;;;;;;5089386;28;20043;-89
2023/05/04 02:11:51;;;;;;;10.18;4.15;;;5.80;99.90;;;;;;5075789;28;20514;-89
2023/05/04 02:14:17;;;;;;;9.88;4.68;;;5.80;99.90;;;;;;5091585;28;20063;-88
2023/05/04 02:16:43;;;;;;;13.13;5.57;;;5.80;99.90;;;;;;5076434;28;20039;-89
2023/05/04 02:19:08;;;;;;;8.63;4.30;;;6.50;99.90;;;;;;5074992;28;20345;-89
2023/05/04 02:21:34;;;;;;;11.98;5.25;;;6.30;99.90;;;;;;5092960;28;20052;-88
2023/05/04 02:24:00;;;;;;;13.50;5.28;;;6.70;99.90;;;;;;5108789;28;20147;-89
2023/05/04 02:26:26;;;;;;;11.98;4.53;;;6.40;99.90;;;;;;5092822;28;20040;-89
2023/05/04 02:28:51;;;;;;;9.63;4.28;;;5.80;99.90;;;;;;5110142;28;20047;-89
2023/05/04 02:31:17;;;;;;;18.85;4.85;;;5.80;99.90;;;;;;5074692;28;20047;-89
2023/05/04 02:33:43;;;;;;;12.38;5.00;;;6.50;99.90;;;;;;5092565;28;20088;-89
2023/05/04 02:36:08;;;;;;;7.95;4.78;;;5.80;99.90;;;;;;5108596;28;20044;-88
2023/05/04 02:38:34;;;;;;;9.02;5.10;;;6.80;99.90;;;;;;5093193;28;20050;-88
2023/05/04 02:41:00;;;;;;;14.20;4.53;;;6.90;99.90;;;;;;5108719;28;20086;-87
2023/05/04 02:43:25;;;;;;;11.63;4.93;;;5.70;99.90;;;;;;5092140;28;20039;-87
2023/05/04 02:45:51;;;;;;;17.02;4.72;;;5.70;99.90;;;;;;5092664;28;20386;-87
2023/05/04 02:48:17;;;;;;;14.23;5.20;;;5.70;99.90;;;;;;5074009;28;20036;-88
2023/05/04 02:50:43;;;;;;;9.60;5.20;;;5.70;99.90;;;;;;5092177;28;20079;-88
2023/05/04 02:53:09;;;;;;;10.95;4.93;;;6.80;99.90;;;;;;5091350;28;20036;-88
2023/05/04 02:55:34;;;;;;;11.45;5.10;;;5.70;99.90;;;;;;5092548;28;20127;-89
2023/05/04 02:58:00;;;;;;;10.75;5.32;;;5.70;99.90;;;;;;5075028;28;20043;-89
2023/05/04 03:00:26;;;;;;;11.13;5.32;;;6.70;99.90;;;;;;5109017;28;20054;-87
2023/05/04 03:02:52;;;;;;;10.35;5.05;;;5.80;99.90;;;;;;5109546;28;20066;-88
2023/05/04 03:05:17;;;;;;;16.75;4.82;;;5.70;99.90;;;;;;5092080;28;20066;-88
2023/05/04 03:07:43;;;;;;;13.70;6.35;;;5.70;99.90;;;;;;5093965;28;20062;-88
2023/05/04 03:10:09;;;;;;;10.00;5.30;;;5.70;99.90;;;;;;5097180;28;20043;-89
2023/05/04 03:12:35;;;;;;;15.02;5.88;;;6.10;99.90;;;;;;5076776;28;20046;-89
2023/05/04 03:15:00;;;;;;;10.63;5.32;;;5.70;99.90;;;;;;5074766;28;20565;-89
2023/05/04 03:17:26;;;;;;;10.25;5.45;;;5.70;99.90;;;;;;5092690;28;20047;-89
2023/05/04 03:19:52;;;;;;;11.75;5.55;;;5.70;99.90;;;;;;5091866;28;20047;-89
2023/05/04 03:22:18;;;;;;;11.02;5.53;;;5.70;99.90;;;;;;5091143;28;20051;-89
2023/05/04 03:24:43;;;;;;;12.23;5.57;;;6.40;99.90;;;;;;5075055;28;20529;-89
2023/05/04 03:27:09;;;;;;;10.60;5.00;;;6.60;99.90;;;;;;5090966;28;20040;-89
2023/05/04 03:29:35;;;;;;;11.40;5.47;;;6.90;99.90;;;;;;5092013;28;20036;-89
2023/05/04 03:32:00;;;;;;;11.15;5.32;;;6.40;99.90;;;;;;5090660;28;20055;-89
2023/05/04 03:34:26;;;;;;;10.23;5.20;;;7.00;99.90;;;;;;5091417;28;20039;-89
2023/05/04 03:36:52;;;;;;;12.50;6.22;;;6.00;99.90;;;;;;5077383;28;20071;-89
2023/05/04 03:39:18;;;;;;;12.50;5.80;;;5.60;99.90;;;;;;5091553;28;20383;-88
2023/05/04 03:41:44;;;;;;;8.70;5.88;;;6.70;99.90;;;;;;5090986;28;20046;-88
2023/05/04 03:44:09;;;;;;;12.02;6.03;;;6.30;99.90;;;;;;5089939;28;20043;-88
2023/05/04 03:46:35;;;;;;;12.30;6.57;;;5.60;99.90;;;;;;5091161;28;20412;-89
2023/05/04 03:49:01;;;;;;;8.30;5.60;;;6.70;99.90;;;;;;5073592;28;20131;-89
2023/05/04 03:51:27;;;;;;;16.55;5.70;;;5.70;99.90;;;;;;5091390;28;20370;-89
2023/05/04 03:53:52;;;;;;;11.35;6.18;;;5.60;99.90;;;;;;5073236;28;20047;-89
2023/05/04 03:56:18;;;;;;;11.60;5.55;;;5.60;99.90;;;;;;5090261;28;20050;-89
2023/05/04 03:58:44;;;;;;;14.98;6.95;;;5.60;99.90;;;;;;5074099;28;20043;-89
2023/05/04 04:01:10;;;;;;;12.02;6.10;;;5.60;99.90;;;;;;5089942;28;20299;-89
2023/05/04 04:03:35;;;;;;;15.25;5.95;;;5.70;99.90;;;;;;5074133;28;20487;-89
2023/05/04 04:06:04;;;;;;;9.95;6.35;;;5.70;99.90;;;;;;5072320;28;20408;-89
2023/05/04 04:08:30;;;;;;;14.23;6.10;;;5.70;99.90;;;;;;5074223;28;20077;-89
2023/05/04 04:10:57;;;;;;;11.93;5.80;;;6.50;99.90;;;;;;5089928;28;20040;-89
2023/05/04 04:13:22;;;;;;;12.98;6.18;;;5.80;99.90;;;;;;5090499;28;20059;-89
2023/05/04 04:15:49;;;;;;;13.75;6.07;;;6.90;99.90;;;;;;5107067;28;20054;-88
2023/05/04 04:18:15;;;;;;;12.48;6.28;;;6.80;99.90;;;;;;5072547;28;20077;-89
2023/05/04 04:20:41;;;;;;;14.27;6.90;;;6.70;99.90;;;;;;5089682;28;20087;-89
2023/05/04 04:23:06;;;;;;;10.45;5.47;;;6.20;99.90;;;;;;5072322;28;20142;-89
2023/05/04 04:25:32;;;;;;;11.52;6.50;;;5.90;99.90;;;;;;5090209;28;20051;-89
2023/05/04 04:27:58;;;;;;;10.18;5.78;;;7.20;99.90;;;;;;5106252;28;20169;-89
2023/05/04 04:30:24;;;;;;;12.30;6.55;;;7.20;99.90;;;;;;5073137;28;20130;-89
2023/05/04 04:32:49;;;;;;;12.02;5.28;;;7.10;99.90;;;;;;5106621;28;20463;-89
2023/05/04 04:35:15;;;;;;;16.33;5.90;;;6.00;99.90;;;;;;5107177;28;20115;-88
2023/05/04 04:37:41;;;;;;;9.57;5.72;;;6.80;99.90;;;;;;5106938;28;20553;-88
2023/05/04 04:40:07;;;;;;;16.38;6.65;;;6.00;99.90;;;;;;5089074;28;20039;-89
2023/05/04 04:42:33;;;;;;;12.15;6.00;;;6.00;99.90;;;;;;5090701;28;20062;-89
2023/05/04 04:44:59;;;;;;;12.25;6.22;;;6.70;99.90;;;;;;5072635;28;20035;-89
2023/05/04 04:47:25;;;;;;;12.02;6.32;;;6.10;99.90;;;;;;5073591;28;20092;-89
2023/05/04 04:49:51;;;;;;;9.60;5.60;;;6.10;99.90;;;;;;5072020;28;20043;-89
2023/05/04 04:52:17;;;;;;;11.25;6.07;;;6.20;99.90;;;;;;5106149;28;20097;-89
2023/05/04 04:54:44;;;;;;;17.00;7.63;;;7.00;99.90;;;;;;5090157;28;20035;-88
2023/05/04 04:57:10;;;;;;;12.85;5.55;;;6.60;99.90;;;;;;5072142;28;20124;-89
2023/05/04 04:59:36;;;;;;;11.88;6.35;;;6.30;99.90;;;;;;5089800;28;20165;-90
2023/05/04 05:02:03;;;;;;;10.23;6.32;;;7.50;99.90;;;;;;5106490;28;20051;-89
2023/05/04 05:04:29;;;;;;;14.80;6.43;;;6.50;99.90;;;;;;5073298;28;20047;-90
2023/05/04 05:06:55;;;;;;;12.20;5.88;;;6.40;99.90;;;;;;5091102;28;20039;-92
2023/05/04 05:09:21;;;;;;;12.10;5.80;;;7.10;99.90;;;;;;5090296;28;20131;-91
2023/05/04 05:11:46;;;;;;;13.65;6.28;;;7.40;99.90;;;;;;5090800;28;20080;-90
2023/05/04 05:14:12;;;;;;;15.05;6.53;;;6.60;99.90;;;;;;5072308;28;20040;-89
2023/05/04 05:16:38;;;;;;;12.73;6.45;;;6.70;99.90;;;;;;5090260;28;20067;-88
2023/05/04 05:19:03;;;;;;;15.50;7.18;;;6.80;99.90;;;;;;5115107;28;20036;-90
2023/05/04 05:21:29;;;;;;;14.85;8.88;;;6.70;99.90;;;;;;5109718;28;20095;-92
2023/05/04 05:23:55;;;;;;;14.23;6.82;;;8.10;99.90;;;;;;5091302;28;20097;-91
2023/05/04 05:26:21;;;;;;;11.00;6.32;;;7.60;99.90;;;;;;5090424;28;20039;-89
2023/05/04 05:28:46;;;;;;;13.25;6.68;;;8.20;99.90;;;;;;5105523;28;20048;-88
2023/05/04 05:31:12;;;;;;;12.98;6.07;;;6.90;99.90;;;;;;5105132;28;20044;-87
2023/05/04 05:33:39;;;;;;;10.00;5.78;;;7.00;99.90;;;;;;5088713;28;20403;-91
2023/05/04 05:36:05;;;;;;;13.50;5.85;;;7.00;99.90;;;;;;5104785;27;20043;-88
2023/05/04 05:38:31;;;;;;;11.27;5.90;;;7.10;99.90;;;;;;5089614;28;20043;-88
2023/05/04 05:40:57;;;;;;;11.80;5.47;;;7.20;99.90;;;;;;5071390;28;20036;-89
2023/05/04 05:43:22;;;;;;;14.00;6.43;;;7.90;99.90;;;;;;5105824;28;20044;-90
2023/05/04 05:45:48;;;;;;;12.30;5.47;;;7.30;99.90;;;;;;5088737;28;20035;-88
2023/05/04 05:48:14;;;;;;;12.63;5.80;;;8.10;99.90;;;;;;5087956;28;20039;-89
2023/05/04 05:50:39;;;;;;;13.95;5.38;;;7.90;99.90;;;;;;5088720;28;20055;-87
2023/05/04 05:53:05;;;;;;;11.43;5.90;;;7.50;99.90;;;;;;5070916;28;20138;-87
2023/05/04 05:55:34;;;;;;;12.82;5.72;;;8.00;99.90;;;;;;5107970;28;20048;-87
2023/05/04 05:57:59;;;;;;;11.02;4.90;;;7.70;99.90;;;;;;5105162;28;20078;-85
2023/05/04 06:00:25;;;;;;;13.68;5.57;;;8.10;99.90;;;;;;5071310;28;20499;-88
2023/05/04 06:02:51;;;;;;;10.75;4.90;;;7.80;99.90;;;;;;5071854;28;20043;-87
2023/05/04 06:05:17;;;;;;;14.00;6.15;;;8.60;99.90;;;;;;5087756;28;20092;-87
2023/05/04 06:07:43;;;;;;;12.20;5.13;;;8.40;99.90;;;;;;5089097;28;20044;-87
2023/05/04 06:10:09;;;;;;;8.85;5.38;;;8.00;99.90;;;;;;5087880;28;20503;-87
2023/05/04 06:12:35;;;;;;;13.93;5.93;;;8.10;99.90;;;;;;5089512;28;20168;-88
2023/05/04 06:15:01;;;;;;;11.68;4.95;;;8.90;99.90;;;;;;5106095;28;20043;-88
2023/05/04 06:17:26;;;;;;;16.83;6.97;;;8.30;99.90;;;;;;5106336;28;20044;-88
2023/05/04 06:19:52;;;;;;;9.32;5.07;;;8.30;99.90;;;;;;5089516;28;20149;-87
2023/05/04 06:22:19;;;;;;;15.20;7.13;;;8.40;99.90;;;;;;5105470;28;20561;-88
2023/05/04 06:24:45;;;;;;;9.10;6.75;;;8.50;99.90;;;;;;5095872;28;20060;-89
2023/05/04 06:27:11;;;;;;;11.60;6.05;;;8.80;99.90;;;;;;5078422;28;20502;-87
2023/05/04 06:29:38;;;;;;;12.23;5.13;;;8.70;99.90;;;;;;5096962;28;20107;-89
2023/05/04 06:32:04;;;;;;;14.13;5.40;;;8.80;99.90;;;;;;5112804;28;20043;-89
2023/05/04 06:34:30;;;;;;;10.55;5.15;;;8.90;99.90;;;;;;5078856;28;20082;-91
2023/05/04 06:36:56;;;;;;;9.77;5.40;;;9.90;99.90;;;;;;5095072;28;20099;-88
2023/05/04 06:39:22;;;;;;;13.75;5.43;;;9.00;99.90;;;;;;5093673;28;20071;-88
2023/05/04 06:41:47;;;;;;;10.43;5.13;;;9.10;99.90;;;;;;5095351;28;20464;-94
2023/05/04 06:44:13;;;;;;;9.52;5.10;;;9.20;99.90;;;;;;5094273;28;20116;-92
2023/05/04 06:46:39;;;;;;;23.63;9.75;;;9.20;99.90;;;;;;5093505;28;20048;-92
2023/05/04 06:49:04;;;;;;;8.52;5.00;;;9.30;99.90;;;;;;5074285;28;20040;-89
2023/05/04 06:51:30;;;;;;;12.43;5.57;;;9.30;99.90;;;;;;5075345;28;20052;-90
2023/05/04 06:53:56;;;;;;;11.77;5.28;;;9.50;99.90;;;;;;5089957;28;20043;-90
2023/05/04 06:56:23;;;;;;;11.60;5.28;;;9.50;99.90;;;;;;5071271;28;20040;-90
2023/05/04 06:58:51;;;;;;;11.90;5.13;;;10.00;99.90;;;;;;5072188;28;20081;-88
2023/05/04 07:01:17;;;;;;;11.85;5.53;;;9.70;99.90;;;;;;5104090;28;20083;-88
2023/05/04 07:03:43;;;;;;;10.32;5.25;;;9.70;99.90;;;;;;5088591;28;20044;-89
2023/05/04 07:06:09;;;;;;;14.07;5.38;;;9.80;99.90;;;;;;5087255;28;20514;-89
2023/05/04 07:08:34;;;;;;;11.35;5.75;;;9.80;99.90;;;;;;5088493;28;20057;-90
2023/05/04 07:11:00;;;;;;;13.55;5.03;;;9.90;99.90;;;;;;5105186;28;20130;-90
2023/05/04 07:13:26;;;;;;;10.00;4.97;;;10.30;99.90;;;;;;5107644;28;20094;-92
2023/05/04 07:15:52;;;;;;;11.30;4.30;;;10.60;99.90;;;;;;5075383;28;20043;-90
2023/05/04 07:18:18;;;;;;;8.80;4.10;;;10.20;99.90;;;;;;5074705;28;20038;-93
2023/05/04 07:20:44;;;;;;;19.58;4.18;;;10.30;99.90;;;;;;5092812;28;20040;-92
2023/05/04 07:23:10;;;;;;;10.50;4.18;;;10.30;99.90;;;;;;5090853;28;20062;-91
2023/05/04 07:25:35;;;;;;;11.82;4.55;;;10.40;99.90;;;;;;5106464;28;20039;-94
2023/05/04 07:28:01;;;;;;;10.85;4.40;;;10.50;99.90;;;;;;5096239;28;20040;-91
2023/05/04 07:30:27;;;;;;;8.20;4.15;;;10.60;99.90;;;;;;5111465;28;20084;-92
2023/05/04 07:32:52;;;;;;;10.60;4.13;;;10.70;99.90;;;;;;5093363;28;20044;-88
2023/05/04 07:35:18;;;;;;;12.48;4.95;;;10.70;99.90;;;;;;5108786;28;20043;-91
2023/05/04 07:37:45;;;;;;;13.10;5.95;;;10.80;99.90;;;;;;5092973;28;20032;-95
2023/05/04 07:40:16;;;;;;;16.77;3.78;;;10.80;99.90;;;;;;5076693;28;20408;-91
2023/05/04 07:42:42;;;;;;;13.10;4.13;;;10.80;99.90;;;;;;5076058;28;20035;-90
2023/05/04 07:45:08;;;;;;;8.57;3.88;;;11.80;99.90;;;;;;5090760;28;20036;-89
2023/05/04 07:47:35;;;;;;;15.65;3.95;;;10.90;99.90;;;;;;5074035;28;20044;-86
2023/05/04 07:50:01;;;;;;;12.40;4.05;;;10.90;99.90;;;;;;5124900;27;20048;-89
2023/05/04 07:52:27;;;;;;;11.88;4.80;;;11.00;99.90;;;;;;5107256;27;20046;-90
2023/05/04 07:54:53;;;;;;;9.90;4.38;;;11.00;99.90;;;;;;5074774;28;20559;-88
2023/05/04 07:57:19;;;;;;;11.75;4.88;;;11.10;99.90;;;;;;5090608;28;20387;-88
2023/05/04 07:59:45;;;;;;;10.63;4.82;;;11.20;99.90;;;;;;5091498;28;20036;-88
2023/05/04 08:02:11;;;;;;;13.55;4.43;;;11.30;99.90;;;;;;5090437;28;20385;-87
2023/05/04 08:04:37;;;;;;;9.52;3.80;;;11.40;99.90;;;;;;5090596;28;20146;-89
2023/05/04 08:07:03;;;;;;;14.93;4.30;;;11.50;99.90;;;;;;5075018;28;20085;-89
2023/05/04 08:09:28;;;;;;;11.43;4.60;;;12.50;99.90;;;;;;5074002;28;20047;-83
2023/05/04 08:11:54;;;;;;;8.57;3.80;;;11.80;99.90;;;;;;5107596;28;20044;-90
2023/05/04 08:14:20;;;;;;;11.82;4.00;;;11.90;99.90;;;;;;5107085;28;20075;-86
2023/05/04 08:16:46;;;;;;;9.68;4.97;;;12.00;99.90;;;;;;5108633;28;20050;-88
2023/05/04 08:19:12;;;;;;;10.25;4.45;;;12.20;99.90;;;;;;5108108;28;20047;-89
2023/05/04 08:21:39;;;;;;;11.80;4.85;;;12.30;99.90;;;;;;5091016;28;20052;-90
2023/05/04 08:24:05;;;;;;;11.85;4.40;;;12.50;99.90;;;;;;5091157;28;20043;-89
2023/05/04 08:26:31;;;;;;;15.82;4.88;;;12.60;99.90;;;;;;5091427;28;20040;-93
2023/05/04 08:29:06;;;;;;;8.20;4.47;;;12.80;99.90;;;;;;5092166;28;20506;-93
2023/05/04 08:31:32;;;;;;;11.10;4.65;;;12.90;99.90;;;;;;5089421;28;20140;-90
2023/05/04 08:33:58;;;;;;;9.52;4.15;;;13.00;99.90;;;;;;5093651;28;20507;-94
2023/05/04 08:36:25;;;;;;;11.32;4.65;;;13.20;99.90;;;;;;5094927;28;20038;-96
2023/05/04 08:38:52;;;;;;;11.15;4.97;;;13.40;99.90;;;;;;5077511;28;20051;-88
2023/05/04 08:41:18;;;;;;;10.77;3.95;;;13.50;99.90;;;;;;5108686;28;20052;-93
2023/05/04 08:43:45;;;;;;;14.82;4.63;;;13.60;99.90;;;;;;5092383;28;20031;-88
2023/05/04 08:46:12;;;;;;;14.38;4.80;;;13.70;99.90;;;;;;5123972;27;20043;-90
2023/05/04 08:48:38;;;;;;;7.88;3.85;;;13.80;99.90;;;;;;5106431;28;20046;-89
2023/05/04 08:51:05;;;;;;;8.63;4.25;;;13.90;99.90;;;;;;5073578;28;20369;-87
2023/05/04 08:53:34;;;;;;;8.95;4.00;;;14.00;99.90;;;;;;5089405;28;20046;-91
2023/05/04 08:56:03;;;;;;;10.50;4.50;;;14.00;99.90;;;;;;5089978;28;20511;-88
2023/05/04 08:58:30;;;;;;;11.27;4.32;;;14.00;99.90;;;;;;5072848;28;20492;-88
2023/05/04 09:00:57;;;;;;;10.52;4.97;;;14.20;99.90;;;;;;5089385;28;20046;-88
2023/05/04 09:03:24;;;;;;;8.65;4.07;;;14.40;99.90;;;;;;5089644;28;20044;-88
2023/05/04 09:05:51;;;;;;;10.93;3.88;;;14.50;99.90;;;;;;5088396;28;20172;-88
2023/05/04 09:08:19;;;;;;;10.60;3.97;;;14.70;99.90;;;;;;5090474;28;20385;-88
2023/05/04 09:10:45;;;;;;;6.25;3.75;;;14.90;99.90;;;;;;5088844;28;20043;-90
2023/05/04 09:13:11;;;;;;;9.70;4.13;;;15.10;99.90;;;;;;5089337;28;20431;-87
2023/05/04 09:15:36;;;;;;;7.90;3.55;;;15.10;99.90;;;;;;5088956;28;20050;-86
2023/05/04 09:18:03;;;;;;;8.82;3.35;;;15.20;99.90;;;;;;5088271;28;20104;-86
2023/05/04 09:20:30;;;;;;;12.68;3.92;;;15.30;99.90;;;;;;5090007;28;20101;-87
2023/05/04 09:23:06;;;;;;;11.05;3.80;;;15.50;99.90;;;;;;5087958;28;20092;-86
2023/05/04 09:25:52;;;;;;;10.52;4.13;;;15.60;99.90;;;;;;5089113;28;20043;-86
2023/05/04 09:28:20;;;;;;;12.07;3.90;;;15.70;99.90;;;;;;5088782;28;20481;-86
2023/05/04 09:30:47;;;;;;;11.30;4.53;;;15.80;99.90;;;;;;5105226;28;20078;-87
2023/05/04 09:33:15;;;;;;;8.70;3.85;;;15.80;99.90;;;;;;5089432;28;20166;-85
2023/05/04 09:35:43;;;;;;;10.70;3.97;;;15.90;99.90;;;;;;5086991;28;20038;-83
2023/05/04 09:38:09;;;;;;;6.93;3.90;;;15.80;99.90;;;;;;5089851;28;20491;-85
2023/05/04 09:40:37;;;;;;;6.70;3.58;;;15.80;99.90;;;;;;5107802;28;20055;-85
2023/05/04 09:43:03;;;;;;;7.25;3.90;;;15.90;99.90;;;;;;5092986;28;20519;-86
2023/05/04 09:45:46;;;;;;;8.52;3.83;;;16.00;99.90;;;;;;5089615;28;20035;-85
2023/05/04 09:48:16;;;;;;;11.48;3.65;;;16.10;99.90;;;;;;5105016;28;20108;-86
2023/05/04 09:50:51;;;;;;;12.45;4.50;;;16.20;99.90;;;;;;5105771;28;20102;-85
2023/05/04 09:53:20;;;;;;;10.43;4.22;;;16.40;99.90;;;;;;5104311;28;20111;-87
2023/05/04 09:55:50;;;;;;;14.55;4.05;;;16.50;99.90;;;;;;5088824;28;20040;-88
2023/05/04 09:58:18;;;;;;;7.72;3.92;;;16.60;99.90;;;;;;5105697;28;20441;-89
2023/05/04 10:00:44;;;;;;;14.30;3.75;;;16.70;99.90;;;;;;5070990;28;20039;-88
2023/05/04 10:03:10;;;;;;;10.48;3.85;;;16.70;99.90;;;;;;5106034;28;20488;-88
2023/05/04 10:05:37;;;;;;;11.63;3.83;;;16.70;99.90;;;;;;5088096;28;20039;-87
2023/05/04 10:08:04;;;;;;;8.65;3.97;;;16.80;99.90;;;;;;5105894;28;20032;-90
2023/05/04 10:10:30;;;;;;;9.48;3.42;;;16.10;99.90;;;;;;5088144;28;20046;-87
2023/05/04 10:12:56;;;;;;;15.20;4.25;;;17.00;99.90;;;;;;5105243;28;20047;-89
2023/05/04 10:15:23;;;;;;;10.10;3.53;;;17.20;99.90;;;;;;5105637;28;20126;-86
2023/05/04 10:18:11;;;;;;;7.50;3.28;;;17.20;99.90;;;;;;5104542;28;20046;-87
2023/05/04 10:20:49;;;;;;;6.60;3.65;;;17.30;99.90;;;;;;5105270;28;20050;-87
2023/05/04 10:23:50;;;;;;;12.05;3.65;;;17.40;99.90;;;;;;5087217;28;20054;-86
2023/05/04 10:26:52;;;;;;;12.48;3.65;;;17.60;99.90;;;;;;5087470;28;20048;-87
2023/05/04 10:29:27;;;;;;;8.88;3.67;;;17.70;99.90;;;;;;5105681;28;20206;-92
2023/05/04 10:31:53;;;;;;;8.32;3.40;;;17.80;99.90;;;;;;5087625;28;20109;-89
2023/05/04 10:34:28;;;;;;;7.13;3.20;;;17.80;99.90;;;;;;5104699;28;20099;-90
2023/05/04 10:36:54;;;;;;;5.55;3.25;;;17.90;99.90;;;;;;5088515;28;20043;-93
2023/05/04 10:39:22;;;;;;;13.32;4.50;;;17.90;99.90;;;;;;5104797;28;20445;-90
2023/05/04 10:42:01;;;;;;;8.70;3.15;;;18.00;99.70;;;;;;5088676;28;20127;-89
2023/05/04 10:44:29;;;;;;;12.02;3.13;;;18.20;99.50;;;;;;5071234;28;20162;-88
2023/05/04 10:47:01;;;;;;;10.02;3.50;;;18.20;99.50;;;;;;5107503;28;20047;-88
2023/05/04 10:49:27;;;;;;;;;;;18.40;99.40;;;;;;5092621;28;20112;-89
2023/05/04 10:52:07;;;;;;;12.82;3.90;;;18.60;98.40;;;;;;5108222;28;19919;-90
2023/05/04 10:54:37;;;;;;;10.00;3.53;;;18.60;98.80;;;;;;5109138;28;20052;-89
2023/05/04 10:57:09;;;;;;;10.13;3.50;;;18.60;99.10;;;;;;5091503;28;20032;-88
2023/05/04 10:59:35;;;;;;;8.65;3.63;;;18.80;99.10;;;;;;5092475;28;20040;-88
2023/05/04 11:02:02;;;;;;;9.02;3.80;;;18.90;98.80;;;;;;5091513;28;20096;-89
2023/05/04 11:04:28;;;;;;;8.32;3.30;;;18.90;98.50;;;;;;5108642;28;20075;-88
2023/05/04 11:07:07;;;;;;;9.63;3.63;;;19.00;98.50;;;;;;5092368;28;20104;-89
2023/05/04 11:09:41;;;;;;;14.32;3.90;;;19.00;97.90;;;;;;5075107;28;20043;-89
2023/05/04 11:12:10;;;;;;;7.68;3.15;;;19.00;97.70;;;;;;5075884;28;20044;-91
2023/05/04 11:14:41;;;;;;;4.75;2.90;;;19.10;97.20;;;;;;5091700;28;20039;-92
2023/05/04 11:17:08;;;;;;;8.07;3.15;;;19.20;96.80;;;;;;5093106;28;20054;-94
2023/05/04 11:19:34;;;;;;;9.00;3.10;;;19.30;96.70;;;;;;5108911;27;20461;-86
2023/05/04 11:22:01;;;;;;;8.27;3.20;;;19.30;96.10;;;;;;5107222;28;20066;-87
2023/05/04 11:24:42;;;;;;;4.80;2.65;;;19.30;95.80;;;;;;5091943;28;20040;-86
2023/05/04 11:27:07;;;;;;;4.85;2.80;;;19.50;95.80;;;;;;5107188;28;20047;-86
2023/05/04 11:29:33;;;;;;;9.43;3.30;;;19.60;95.40;;;;;;5091366;28;20184;-86
2023/05/04 11:31:58;;;;;;;7.43;2.85;;;19.70;94.90;;;;;;5091231;28;20051;-89
2023/05/04 11:34:24;;;;;;;7.05;3.38;;;19.80;94.40;;;;;;5108537;28;20042;-88
2023/05/04 11:36:50;;;;;;;6.57;3.00;;;20.30;93.70;;;;;;5074278;28;20050;-87
2023/05/04 11:39:16;;;;;;;6.63;3.22;;;19.70;93.00;;;;;;5107450;28;20047;-87
2023/05/04 11:41:43;;;;;;;13.20;3.10;;;19.70;92.90;;;;;;5091406;28;20048;-87
2023/05/04 11:44:10;;;;;;;8.90;3.03;;;19.80;93.10;;;;;;5089812;28;20082;-87
2023/05/04 11:46:36;;;;;;;11.25;3.60;;;20.00;93.60;;;;;;5091299;28;20126;-87
2023/05/04 11:49:03;;;;;;;11.18;3.20;;;20.20;93.00;;;;;;5107411;27;20047;-85
2023/05/04 11:51:29;;;;;;;8.25;3.38;;;20.30;92.00;;;;;;5113937;28;20067;-86
2023/05/04 11:53:55;;;;;;;8.85;3.08;;;20.30;91.50;;;;;;5095505;28;20039;-86
2023/05/04 11:56:21;;;;;;;6.07;2.97;;;20.30;91.30;;;;;;5090849;28;20062;-85
2023/05/04 11:58:47;;;;;;;10.20;3.83;;;20.30;91.10;;;;;;5107635;28;20059;-87
2023/05/04 12:01:13;;;;;;;7.57;4.22;;;20.30;90.80;;;;;;5089356;28;20525;-87
2023/05/04 12:03:40;;;;;;;5.18;3.15;;;20.30;90.60;;;;;;5090942;28;20043;-86
2023/05/04 12:06:06;;;;;;;7.72;3.55;;;20.20;90.20;;;;;;5107643;28;20069;-87
2023/05/04 12:08:40;;;;;;;6.70;3.47;;;20.20;90.30;;;;;;5107013;28;20046;-86
2023/05/04 12:11:25;;;;;;;7.78;2.95;;;20.20;89.20;;;;;;5090359;28;20546;-86
2023/05/04 12:14:08;;;;;;;8.60;3.38;;;20.30;89.10;;;;;;5106305;28;20040;-87
2023/05/04 12:16:34;;;;;;;5.65;2.88;;;20.40;88.80;;;;;;5091139;28;20036;-87
2023/05/04 12:19:09;;;;;;;6.35;2.92;;;20.50;87.30;;;;;;5090586;28;20054;-90
2023/05/04 12:21:36;;;;;;;8.57;3.45;;;20.50;85.00;;;;;;5106840;28;20062;-89
2023/05/04 12:24:04;;;;;;;7.93;3.60;;;20.50;86.10;;;;;;5107981;28;20438;-89
2023/05/04 12:26:30;;;;;;;7.70;3.78;;;20.60;85.50;;;;;;5089191;28;20509;-88
2023/05/04 12:28:55;;;;;;;8.02;3.20;;;20.60;85.00;;;;;;5090814;28;20083;-89
2023/05/04 12:31:22;;;;;;;5.65;3.15;;;20.60;84.80;;;;;;5088711;28;20408;-88
2023/05/04 12:33:51;;;;;;;13.38;3.47;;;20.60;83.90;;;;;;5089904;28;20046;-89
2023/05/04 12:36:17;;;;;;;14.23;3.72;;;20.70;83.30;;;;;;5089585;28;20046;-88
2023/05/04 12:38:43;;;;;;;8.27;3.42;;;20.80;82.90;;;;;;5072995;28;20400;-87
2023/05/04 12:41:09;;;;;;;13.07;3.38;;;20.90;82.20;;;;;;5106925;28;20047;-89
2023/05/04 12:43:35;;;;;;;7.97;3.70;;;21.00;81.80;;;;;;5106432;28;20437;-87
2023/05/04 12:46:02;;;;;;;7.55;3.88;;;21.10;81.50;;;;;;5107139;28;20132;-88